sensor_id;sensor_type;location;lat;lon;timestamp;temperature;humidity
18717;DHT22;9487;50.892;6.906;2023-09-19T00:00:17;17.40;1.00
18717;DHT22;9487;50.892;6.906;2023-09-19T00:02:45;17.40;1.00
18717;DHT22;9487;50.892;6.906;2023-09-19T00:05:13;17.40;1.00
18717;DHT22;9487;50.892;6.906;2023-09-19T00:07:40;17.40;1.00
18717;DHT22;9487;50.892;6.906;2023-09-19T00:10:08;17.40;1.00
18717;DHT22;9487;50.892;6.906;2023-09-19T00:12:36;17.30;1.00
18717;DHT22;9487;50.892;6.906;2023-09-19T00:15:06;17.30;1.00
18717;DHT22;9487;50.892;6.906;2023-09-19T00:17:33;17.40;1.00
18717;DHT22;9487;50.892;6.906;2023-09-19T00:20:00;17.40;1.00
18717;DHT22;9487;50.892;6.906;2023-09-19T00:22:39;17.40;1.00
18717;DHT22;9487;50.892;6.906;2023-09-19T00:25:07;17.40;1.00
18717;DHT22;9487;50.892;6.906;2023-09-19T00:27:35;17.40;1.00
18717;DHT22;9487;50.892;6.906;2023-09-19T00:30:07;17.40;1.00
18717;DHT22;9487;50.892;6.906;2023-09-19T00:32:40;17.40;1.00
18717;DHT22;9487;50.892;6.906;2023-09-19T00:35:07;17.40;1.00
18717;DHT22;9487;50.892;6.906;2023-09-19T00:37:35;17.30;1.00
18717;DHT22;9487;50.892;6.906;2023-09-19T00:40:02;17.30;1.00
18717;DHT22;9487;50.892;6.906;2023-09-19T00:42:32;17.30;1.00
18717;DHT22;9487;50.892;6.906;2023-09-19T00:44:59;17.40;1.00
18717;DHT22;9487;50.892;6.906;2023-09-19T00:47:30;17.40;1.00
18717;DHT22;9487;50.892;6.906;2023-09-19T00:49:57;17.40;1.00
18717;DHT22;9487;50.892;6.906;2023-09-19T00:52:25;17.30;1.00
18717;DHT22;9487;50.892;6.906;2023-09-19T00:54:52;17.30;1.00
18717;DHT22;9487;50.892;6.906;2023-09-19T00:57:20;17.30;1.00
18717;DHT22;9487;50.892;6.906;2023-09-19T00:59:50;17.30;1.00
18717;DHT22;9487;50.892;6.906;2023-09-19T01:02:19;17.30;1.00
18717;DHT22;9487;50.892;6.906;2023-09-19T01:04:48;17.30;1.00
18717;DHT22;9487;50.892;6.906;2023-09-19T01:07:15;17.30;1.00
18717;DHT22;9487;50.892;6.906;2023-09-19T01:09:42;17.40;1.00
18717;DHT22;9487;50.892;6.906;2023-09-19T01:12:11;17.40;1.00
18717;DHT22;9487;50.892;6.906;2023-09-19T01:14:46;17.40;1.00
18717;DHT22;9487;50.892;6.906;2023-09-19T01:17:24;17.40;1.00
18717;DHT22;9487;50.892;6.906;2023-09-19T01:20:13;17.40;1.00
18717;DHT22;9487;50.892;6.906;2023-09-19T01:22:50;17.40;1.00
18717;DHT22;9487;50.892;6.906;2023-09-19T01:28:34;17.40;1.00
18717;DHT22;9487;50.892;6.906;2023-09-19T01:31:09;17.40;1.00
18717;DHT22;9487;50.892;6.906;2023-09-19T01:33:59;17.40;1.00
18717;DHT22;9487;50.892;6.906;2023-09-19T01:36:28;17.30;1.00
18717;DHT22;9487;50.892;6.906;2023-09-19T01:38:57;17.30;1.00
18717;DHT22;9487;50.892;6.906;2023-09-19T01:41:45;17.40;1.00
18717;DHT22;9487;50.892;6.906;2023-09-19T01:44:19;17.40;1.00
18717;DHT22;9487;50.892;6.906;2023-09-19T01:46:50;17.30;1.00
18717;DHT22;9487;50.892;6.906;2023-09-19T01:49:29;17.30;1.00
18717;DHT22;9487;50.892;6.906;2023-09-19T01:52:04;17.20;1.00
18717;DHT22;9487;50.892;6.906;2023-09-19T01:54:36;17.20;1.00
18717;DHT22;9487;50.892;6.906;2023-09-19T01:57:09;17.10;1.00
18717;DHT22;9487;50.892;6.906;2023-09-19T01:59:43;17.10;1.00
18717;DHT22;9487;50.892;6.906;2023-09-19T02:02:14;17.10;1.00
18717;DHT22;9487;50.892;6.906;2023-09-19T02:04:41;17.10;1.00
18717;DHT22;9487;50.892;6.906;2023-09-19T02:07:09;17.10;1.00
18717;DHT22;9487;50.892;6.906;2023-09-19T02:09:36;17.10;1.00
18717;DHT22;9487;50.892;6.906;2023-09-19T02:12:06;17.10;1.00
18717;DHT22;9487;50.892;6.906;2023-09-19T02:14:33;17.10;1.00
18717;DHT22;9487;50.892;6.906;2023-09-19T02:17:01;16.90;1.00
18717;DHT22;9487;50.892;6.906;2023-09-19T02:19:32;16.90;1.00
18717;DHT22;9487;50.892;6.906;2023-09-19T02:21:59;16.90;1.00
18717;DHT22;9487;50.892;6.906;2023-09-19T02:24:29;16.90;1.00
18717;DHT22;9487;50.892;6.906;2023-09-19T02:26:56;16.80;1.00
18717;DHT22;9487;50.892;6.906;2023-09-19T02:29:33;16.80;1.00
18717;DHT22;9487;50.892;6.906;2023-09-19T02:32:00;16.80;1.00
18717;DHT22;9487;50.892;6.906;2023-09-19T02:34:28;16.80;1.00
18717;DHT22;9487;50.892;6.906;2023-09-19T02:36:56;16.80;1.00
18717;DHT22;9487;50.892;6.906;2023-09-19T02:39:23;16.80;1.00
18717;DHT22;9487;50.892;6.906;2023-09-19T02:41:50;16.70;1.00
18717;DHT22;9487;50.892;6.906;2023-09-19T02:44:18;16.70;1.00
18717;DHT22;9487;50.892;6.906;2023-09-19T02:46:47;16.70;1.00
18717;DHT22;9487;50.892;6.906;2023-09-19T02:49:14;16.70;1.00
18717;DHT22;9487;50.892;6.906;2023-09-19T02:51:41;16.60;1.00
18717;DHT22;9487;50.892;6.906;2023-09-19T02:54:09;16.60;1.00
18717;DHT22;9487;50.892;6.906;2023-09-19T02:56:37;16.50;1.00
18717;DHT22;9487;50.892;6.906;2023-09-19T02:59:04;16.50;1.00
18717;DHT22;9487;50.892;6.906;2023-09-19T03:01:32;16.40;1.00
18717;DHT22;9487;50.892;6.906;2023-09-19T03:03:59;16.50;1.00
18717;DHT22;9487;50.892;6.906;2023-09-19T03:06:26;16.40;1.00
18717;DHT22;9487;50.892;6.906;2023-09-19T03:08:57;16.40;1.00
18717;DHT22;9487;50.892;6.906;2023-09-19T03:11:27;16.40;1.00
18717;DHT22;9487;50.892;6.906;2023-09-19T03:13:54;16.50;1.00
18717;DHT22;9487;50.892;6.906;2023-09-19T03:16:21;16.50;1.00
18717;DHT22;9487;50.892;6.906;2023-09-19T03:18:49;16.50;1.00
18717;DHT22;9487;50.892;6.906;2023-09-19T03:21:18;16.50;1.00
18717;DHT22;9487;50.892;6.906;2023-09-19T03:23:47;16.50;1.00
18717;DHT22;9487;50.892;6.906;2023-09-19T03:26:14;16.50;1.00
18717;DHT22;9487;50.892;6.906;2023-09-19T03:28:43;16.50;1.00
18717;DHT22;9487;50.892;6.906;2023-09-19T03:31:11;16.50;1.00
18717;DHT22;9487;50.892;6.906;2023-09-19T03:33:38;16.50;1.00
18717;DHT22;9487;50.892;6.906;2023-09-19T03:36:05;16.40;1.00
18717;DHT22;9487;50.892;6.906;2023-09-19T03:38:34;16.40;1.00
18717;DHT22;9487;50.892;6.906;2023-09-19T03:41:01;16.50;1.00
18717;DHT22;9487;50.892;6.906;2023-09-19T03:43:28;16.40;1.00
18717;DHT22;9487;50.892;6.906;2023-09-19T03:45:56;16.50;1.00
18717;DHT22;9487;50.892;6.906;2023-09-19T03:48:23;16.50;1.00
18717;DHT22;9487;50.892;6.906;2023-09-19T03:50:50;16.50;1.00
18717;DHT22;9487;50.892;6.906;2023-09-19T03:53:18;16.40;1.00
18717;DHT22;9487;50.892;6.906;2023-09-19T03:55:45;16.40;1.00
18717;DHT22;9487;50.892;6.906;2023-09-19T03:58:12;16.40;1.00
18717;DHT22;9487;50.892;6.906;2023-09-19T04:00:39;16.40;1.00
18717;DHT22;9487;50.892;6.906;2023-09-19T04:03:08;16.50;1.00
18717;DHT22;9487;50.892;6.906;2023-09-19T04:05:36;16.50;1.00
18717;DHT22;9487;50.892;6.906;2023-09-19T04:08:03;16.40;1.00
18717;DHT22;9487;50.892;6.906;2023-09-19T04:10:30;16.40;1.00
18717;DHT22;9487;50.892;6.906;2023-09-19T04:12:57;16.40;99.90
18717;DHT22;9487;50.892;6.906;2023-09-19T04:15:24;16.40;99.90
18717;DHT22;9487;50.892;6.906;2023-09-19T04:17:51;16.30;99.90
18717;DHT22;9487;50.892;6.906;2023-09-19T04:20:20;16.30;99.90
18717;DHT22;9487;50.892;6.906;2023-09-19T04:22:48;16.30;99.90
18717;DHT22;9487;50.892;6.906;2023-09-19T04:25:15;16.30;99.90
18717;DHT22;9487;50.892;6.906;2023-09-19T04:27:42;16.30;99.90
18717;DHT22;9487;50.892;6.906;2023-09-19T04:30:11;16.30;99.90
18717;DHT22;9487;50.892;6.906;2023-09-19T04:32:38;16.30;99.90
18717;DHT22;9487;50.892;6.906;2023-09-19T04:35:07;16.40;99.90
18717;DHT22;9487;50.892;6.906;2023-09-19T04:37:37;16.40;99.90
18717;DHT22;9487;50.892;6.906;2023-09-19T04:40:07;16.40;15.30
18717;DHT22;9487;50.892;6.906;2023-09-19T04:42:39;16.30;99.90
18717;DHT22;9487;50.892;6.906;2023-09-19T04:45:08;16.40;99.90
18717;DHT22;9487;50.892;6.906;2023-09-19T04:47:36;16.40;3.70
18717;DHT22;9487;50.892;6.906;2023-09-19T04:50:06;16.50;1.00
18717;DHT22;9487;50.892;6.906;2023-09-19T04:52:32;16.40;4.30
18717;DHT22;9487;50.892;6.906;2023-09-19T04:55:00;16.50;1.00
18717;DHT22;9487;50.892;6.906;2023-09-19T04:57:27;16.50;1.00
18717;DHT22;9487;50.892;6.906;2023-09-19T04:59:54;16.50;1.00
18717;DHT22;9487;50.892;6.906;2023-09-19T05:02:21;16.50;1.00
18717;DHT22;9487;50.892;6.906;2023-09-19T05:04:48;16.50;1.00
18717;DHT22;9487;50.892;6.906;2023-09-19T05:07:16;16.50;1.00
18717;DHT22;9487;50.892;6.906;2023-09-19T05:09:43;16.50;1.00
18717;DHT22;9487;50.892;6.906;2023-09-19T05:12:12;16.40;1.00
18717;DHT22;9487;50.892;6.906;2023-09-19T05:14:40;16.30;1.00
18717;DHT22;9487;50.892;6.906;2023-09-19T05:17:07;16.40;1.00
18717;DHT22;9487;50.892;6.906;2023-09-19T05:19:34;16.40;1.00
18717;DHT22;9487;50.892;6.906;2023-09-19T05:22:02;16.40;1.00
18717;DHT22;9487;50.892;6.906;2023-09-19T05:24:29;16.40;1.00
18717;DHT22;9487;50.892;6.906;2023-09-19T05:26:56;16.50;1.00
18717;DHT22;9487;50.892;6.906;2023-09-19T05:29:27;16.50;1.00
18717;DHT22;9487;50.892;6.906;2023-09-19T05:31:54;16.40;1.00
18717;DHT22;9487;50.892;6.906;2023-09-19T05:34:24;16.20;9.30
18717;DHT22;9487;50.892;6.906;2023-09-19T05:36:55;16.30;21.20
18717;DHT22;9487;50.892;6.906;2023-09-19T05:39:22;16.30;1.00
18717;DHT22;9487;50.892;6.906;2023-09-19T05:41:49;16.30;1.00
18717;DHT22;9487;50.892;6.906;2023-09-19T05:44:16;16.40;1.00
18717;DHT22;9487;50.892;6.906;2023-09-19T05:46:45;16.40;1.00
18717;DHT22;9487;50.892;6.906;2023-09-19T05:49:13;16.40;1.00
18717;DHT22;9487;50.892;6.906;2023-09-19T05:51:41;16.30;1.00
18717;DHT22;9487;50.892;6.906;2023-09-19T05:54:08;16.30;1.00
18717;DHT22;9487;50.892;6.906;2023-09-19T05:56:36;16.30;1.00
18717;DHT22;9487;50.892;6.906;2023-09-19T05:59:03;16.30;45.20
18717;DHT22;9487;50.892;6.906;2023-09-19T06:01:31;16.30;18.60
18717;DHT22;9487;50.892;6.906;2023-09-19T06:04:01;16.30;1.00
18717;DHT22;9487;50.892;6.906;2023-09-19T06:06:29;16.50;1.00
18717;DHT22;9487;50.892;6.906;2023-09-19T06:08:56;16.50;1.00
18717;DHT22;9487;50.892;6.906;2023-09-19T06:11:23;16.50;1.00
18717;DHT22;9487;50.892;6.906;2023-09-19T06:13:52;16.50;1.00
18717;DHT22;9487;50.892;6.906;2023-09-19T06:16:19;16.50;1.00
18717;DHT22;9487;50.892;6.906;2023-09-19T06:18:46;16.50;1.00
18717;DHT22;9487;50.892;6.906;2023-09-19T06:21:19;16.50;1.00
18717;DHT22;9487;50.892;6.906;2023-09-19T06:23:46;16.40;1.00
18717;DHT22;9487;50.892;6.906;2023-09-19T06:26:13;16.50;1.00
18717;DHT22;9487;50.892;6.906;2023-09-19T06:28:40;16.60;1.00
18717;DHT22;9487;50.892;6.906;2023-09-19T06:31:08;16.50;1.00
18717;DHT22;9487;50.892;6.906;2023-09-19T06:33:35;16.60;99.90
18717;DHT22;9487;50.892;6.906;2023-09-19T06:36:04;16.70;1.00
18717;DHT22;9487;50.892;6.906;2023-09-19T06:38:33;16.80;1.00
18717;DHT22;9487;50.892;6.906;2023-09-19T06:41:02;16.80;1.00
18717;DHT22;9487;50.892;6.906;2023-09-19T06:43:30;16.90;1.00
18717;DHT22;9487;50.892;6.906;2023-09-19T06:46:00;16.90;1.00
18717;DHT22;9487;50.892;6.906;2023-09-19T06:48:28;17.00;1.00
18717;DHT22;9487;50.892;6.906;2023-09-19T06:50:56;17.00;1.00
18717;DHT22;9487;50.892;6.906;2023-09-19T06:53:24;17.10;1.00
18717;DHT22;9487;50.892;6.906;2023-09-19T06:55:52;17.10;1.00
18717;DHT22;9487;50.892;6.906;2023-09-19T06:58:21;17.30;93.40
18717;DHT22;9487;50.892;6.906;2023-09-19T07:00:47;17.40;1.00
18717;DHT22;9487;50.892;6.906;2023-09-19T07:03:15;17.50;99.90
18717;DHT22;9487;50.892;6.906;2023-09-19T07:05:48;17.30;99.90
18717;DHT22;9487;50.892;6.906;2023-09-19T07:08:16;17.30;1.00
18717;DHT22;9487;50.892;6.906;2023-09-19T07:10:45;17.10;1.00
18717;DHT22;9487;50.892;6.906;2023-09-19T07:13:15;17.10;1.00
18717;DHT22;9487;50.892;6.906;2023-09-19T07:15:44;17.10;1.00
18717;DHT22;9487;50.892;6.906;2023-09-19T07:18:14;17.20;1.00
18717;DHT22;9487;50.892;6.906;2023-09-19T07:20:42;17.20;1.00
18717;DHT22;9487;50.892;6.906;2023-09-19T07:23:14;17.20;1.00
18717;DHT22;9487;50.892;6.906;2023-09-19T07:25:42;17.40;1.00
18717;DHT22;9487;50.892;6.906;2023-09-19T07:28:09;17.60;99.90
18717;DHT22;9487;50.892;6.906;2023-09-19T07:30:38;17.60;99.90
18717;DHT22;9487;50.892;6.906;2023-09-19T07:33:07;17.60;99.90
18717;DHT22;9487;50.892;6.906;2023-09-19T07:35:38;17.70;99.90
18717;DHT22;9487;50.892;6.906;2023-09-19T07:38:07;17.70;99.90
18717;DHT22;9487;50.892;6.906;2023-09-19T07:40:37;17.70;99.90
18717;DHT22;9487;50.892;6.906;2023-09-19T07:43:04;17.70;99.90
18717;DHT22;9487;50.892;6.906;2023-09-19T07:45:32;17.80;99.90
18717;DHT22;9487;50.892;6.906;2023-09-19T07:48:01;17.90;1.00
18717;DHT22;9487;50.892;6.906;2023-09-19T07:50:29;18.00;1.00
18717;DHT22;9487;50.892;6.906;2023-09-19T07:52:56;18.00;1.00
18717;DHT22;9487;50.892;6.906;2023-09-19T07:55:27;18.10;1.00
18717;DHT22;9487;50.892;6.906;2023-09-19T07:57:55;18.30;99.90
18717;DHT22;9487;50.892;6.906;2023-09-19T08:00:22;18.20;99.90
18717;DHT22;9487;50.892;6.906;2023-09-19T08:02:49;18.20;1.00
18717;DHT22;9487;50.892;6.906;2023-09-19T08:05:19;18.20;99.90
18717;DHT22;9487;50.892;6.906;2023-09-19T08:07:48;18.20;1.00
18717;DHT22;9487;50.892;6.906;2023-09-19T08:10:15;18.20;99.90
18717;DHT22;9487;50.892;6.906;2023-09-19T08:12:45;18.40;99.90
18717;DHT22;9487;50.892;6.906;2023-09-19T08:15:13;18.60;1.00
18717;DHT22;9487;50.892;6.906;2023-09-19T08:17:42;18.60;99.90
18717;DHT22;9487;50.892;6.906;2023-09-19T08:20:10;18.70;1.00
18717;DHT22;9487;50.892;6.906;2023-09-19T08:22:43;18.80;99.90
18717;DHT22;9487;50.892;6.906;2023-09-19T08:25:13;18.90;1.00
18717;DHT22;9487;50.892;6.906;2023-09-19T08:27:39;19.00;1.00
18717;DHT22;9487;50.892;6.906;2023-09-19T08:30:10;19.00;99.90
18717;DHT22;9487;50.892;6.906;2023-09-19T08:32:38;19.00;1.00
18717;DHT22;9487;50.892;6.906;2023-09-19T08:35:08;19.00;1.00
18717;DHT22;9487;50.892;6.906;2023-09-19T08:37:36;19.10;1.00
18717;DHT22;9487;50.892;6.906;2023-09-19T08:40:05;19.30;1.00
18717;DHT22;9487;50.892;6.906;2023-09-19T08:42:47;19.30;1.00
18717;DHT22;9487;50.892;6.906;2023-09-19T08:45:15;19.30;1.00
18717;DHT22;9487;50.892;6.906;2023-09-19T08:47:46;19.30;30.10
18717;DHT22;9487;50.892;6.906;2023-09-19T08:50:19;19.30;33.80
18717;DHT22;9487;50.892;6.906;2023-09-19T08:52:52;19.30;1.00
18717;DHT22;9487;50.892;6.906;2023-09-19T08:55:26;19.30;99.90
18717;DHT22;9487;50.892;6.906;2023-09-19T08:58:00;19.30;99.90
18717;DHT22;9487;50.892;6.906;2023-09-19T09:00:28;19.40;99.90
18717;DHT22;9487;50.892;6.906;2023-09-19T09:02:57;19.40;1.00
18717;DHT22;9487;50.892;6.906;2023-09-19T09:05:27;19.40;1.00
18717;DHT22;9487;50.892;6.906;2023-09-19T09:07:54;19.50;99.90
18717;DHT22;9487;50.892;6.906;2023-09-19T09:10:23;19.60;1.00
18717;DHT22;9487;50.892;6.906;2023-09-19T09:12:51;19.80;1.00
18717;DHT22;9487;50.892;6.906;2023-09-19T09:15:19;19.70;99.90
18717;DHT22;9487;50.892;6.906;2023-09-19T09:17:47;19.80;1.00
18717;DHT22;9487;50.892;6.906;2023-09-19T09:20:16;19.70;1.00
18717;DHT22;9487;50.892;6.906;2023-09-19T09:22:53;19.60;7.50
18717;DHT22;9487;50.892;6.906;2023-09-19T09:28:04;19.50;99.90
18717;DHT22;9487;50.892;6.906;2023-09-19T09:30:36;19.60;1.00
18717;DHT22;9487;50.892;6.906;2023-09-19T09:33:11;19.70;1.00
18717;DHT22;9487;50.892;6.906;2023-09-19T09:35:47;19.70;1.00
18717;DHT22;9487;50.892;6.906;2023-09-19T09:38:17;19.60;1.00
18717;DHT22;9487;50.892;6.906;2023-09-19T09:40:47;19.70;1.00
18717;DHT22;9487;50.892;6.906;2023-09-19T09:43:33;19.80;1.00
18717;DHT22;9487;50.892;6.906;2023-09-19T09:46:14;19.90;1.00
18717;DHT22;9487;50.892;6.906;2023-09-19T09:49:00;20.20;64.70
18717;DHT22;9487;50.892;6.906;2023-09-19T09:52:00;20.20;1.00
18717;DHT22;9487;50.892;6.906;2023-09-19T09:54:31;20.10;1.00
18717;DHT22;9487;50.892;6.906;2023-09-19T09:57:05;20.00;1.00
18717;DHT22;9487;50.892;6.906;2023-09-19T09:59:51;20.00;1.00
18717;DHT22;9487;50.892;6.906;2023-09-19T10:02:25;19.90;99.90
18717;DHT22;9487;50.892;6.906;2023-09-19T10:04:55;19.90;1.00
18717;DHT22;9487;50.892;6.906;2023-09-19T10:07:41;19.90;99.90
18717;DHT22;9487;50.892;6.906;2023-09-19T10:10:15;20.00;99.90
18717;DHT22;9487;50.892;6.906;2023-09-19T10:13:03;20.10;99.90
18717;DHT22;9487;50.892;6.906;2023-09-19T10:15:35;20.20;99.90
18717;DHT22;9487;50.892;6.906;2023-09-19T10:18:05;20.50;1.00
18717;DHT22;9487;50.892;6.906;2023-09-19T10:20:34;20.60;1.00
18717;DHT22;9487;50.892;6.906;2023-09-19T10:23:07;20.70;1.00
18717;DHT22;9487;50.892;6.906;2023-09-19T10:25:37;20.60;99.90
18717;DHT22;9487;50.892;6.906;2023-09-19T10:28:07;20.60;99.90
18717;DHT22;9487;50.892;6.906;2023-09-19T10:30:40;20.70;1.00
18717;DHT22;9487;50.892;6.906;2023-09-19T10:33:10;20.80;1.00
18717;DHT22;9487;50.892;6.906;2023-09-19T10:35:38;20.90;1.00
18717;DHT22;9487;50.892;6.906;2023-09-19T10:38:06;21.10;99.90
18717;DHT22;9487;50.892;6.906;2023-09-19T10:40:35;21.10;99.90
18717;DHT22;9487;50.892;6.906;2023-09-19T10:43:06;21.10;99.90
18717;DHT22;9487;50.892;6.906;2023-09-19T10:45:42;21.20;99.90
18717;DHT22;9487;50.892;6.906;2023-09-19T10:48:11;21.20;12.00
18717;DHT22;9487;50.892;6.906;2023-09-19T10:50:44;21.20;99.90
18717;DHT22;9487;50.892;6.906;2023-09-19T10:53:13;21.10;28.50
18717;DHT22;9487;50.892;6.906;2023-09-19T10:55:42;20.90;1.00
18717;DHT22;9487;50.892;6.906;2023-09-19T10:58:25;20.70;97.90
18717;DHT22;9487;50.892;6.906;2023-09-19T11:00:56;20.80;99.90
18717;DHT22;9487;50.892;6.906;2023-09-19T11:03:27;20.80;1.00
18717;DHT22;9487;50.892;6.906;2023-09-19T11:06:05;20.80;1.00
18717;DHT22;9487;50.892;6.906;2023-09-19T11:09:03;20.80;1.00
18717;DHT22;9487;50.892;6.906;2023-09-19T11:11:48;20.80;1.00
18717;DHT22;9487;50.892;6.906;2023-09-19T11:14:39;20.80;1.00
18717;DHT22;9487;50.892;6.906;2023-09-19T11:20:22;21.00;1.00
18717;DHT22;9487;50.892;6.906;2023-09-19T11:23:22;21.10;1.00
18717;DHT22;9487;50.892;6.906;2023-09-19T11:25:53;21.30;99.90
18717;DHT22;9487;50.892;6.906;2023-09-19T11:28:31;21.20;99.90
18717;DHT22;9487;50.892;6.906;2023-09-19T11:30:57;21.20;1.00
18717;DHT22;9487;50.892;6.906;2023-09-19T11:33:26;21.10;99.90
18717;DHT22;9487;50.892;6.906;2023-09-19T11:36:03;21.00;99.90
18717;DHT22;9487;50.892;6.906;2023-09-19T11:38:59;21.00;1.00
18717;DHT22;9487;50.892;6.906;2023-09-19T11:41:37;21.00;1.00
18717;DHT22;9487;50.892;6.906;2023-09-19T11:44:33;21.10;99.90
18717;DHT22;9487;50.892;6.906;2023-09-19T11:47:06;21.10;99.90
18717;DHT22;9487;50.892;6.906;2023-09-19T11:49:32;21.20;99.90
18717;DHT22;9487;50.892;6.906;2023-09-19T11:52:02;21.20;99.90
18717;DHT22;9487;50.892;6.906;2023-09-19T11:54:32;21.20;99.90
18717;DHT22;9487;50.892;6.906;2023-09-19T11:57:00;21.20;51.20
18717;DHT22;9487;50.892;6.906;2023-09-19T11:59:29;21.30;26.10
18717;DHT22;9487;50.892;6.906;2023-09-19T12:01:57;21.40;1.00
18717;DHT22;9487;50.892;6.906;2023-09-19T12:04:36;21.40;1.00
18717;DHT22;9487;50.892;6.906;2023-09-19T12:07:07;21.50;1.00
18717;DHT22;9487;50.892;6.906;2023-09-19T12:09:39;21.60;1.00
18717;DHT22;9487;50.892;6.906;2023-09-19T12:12:09;21.60;1.00
18717;DHT22;9487;50.892;6.906;2023-09-19T12:14:38;21.50;1.00
18717;DHT22;9487;50.892;6.906;2023-09-19T12:17:08;21.40;1.00
18717;DHT22;9487;50.892;6.906;2023-09-19T12:19:38;21.30;1.00
18717;DHT22;9487;50.892;6.906;2023-09-19T12:22:07;21.30;1.00
18717;DHT22;9487;50.892;6.906;2023-09-19T12:24:36;21.30;1.00
18717;DHT22;9487;50.892;6.906;2023-09-19T12:27:07;21.40;1.00
18717;DHT22;9487;50.892;6.906;2023-09-19T12:29:45;21.60;1.00
18717;DHT22;9487;50.892;6.906;2023-09-19T12:34:51;21.80;1.00
18717;DHT22;9487;50.892;6.906;2023-09-19T12:37:20;21.70;1.00
18717;DHT22;9487;50.892;6.906;2023-09-19T12:39:49;21.70;1.00
18717;DHT22;9487;50.892;6.906;2023-09-19T12:42:21;21.80;1.00
18717;DHT22;9487;50.892;6.906;2023-09-19T12:44:50;21.90;1.00
18717;DHT22;9487;50.892;6.906;2023-09-19T12:47:21;21.80;1.00
18717;DHT22;9487;50.892;6.906;2023-09-19T12:50:13;21.80;1.00
18717;DHT22;9487;50.892;6.906;2023-09-19T12:52:46;21.80;1.00
18717;DHT22;9487;50.892;6.906;2023-09-19T12:55:21;21.80;1.00
18717;DHT22;9487;50.892;6.906;2023-09-19T12:58:11;21.70;1.00
18717;DHT22;9487;50.892;6.906;2023-09-19T13:00:39;21.70;1.00
18717;DHT22;9487;50.892;6.906;2023-09-19T13:03:15;21.70;1.00
18717;DHT22;9487;50.892;6.906;2023-09-19T13:05:51;21.70;1.00
18717;DHT22;9487;50.892;6.906;2023-09-19T13:08:25;21.70;1.00
18717;DHT22;9487;50.892;6.906;2023-09-19T13:11:21;21.80;1.00
18717;DHT22;9487;50.892;6.906;2023-09-19T13:13:51;21.90;1.00
18717;DHT22;9487;50.892;6.906;2023-09-19T13:16:55;21.80;1.00
18717;DHT22;9487;50.892;6.906;2023-09-19T13:19:39;21.70;1.00
18717;DHT22;9487;50.892;6.906;2023-09-19T13:25:07;22.10;1.00
18717;DHT22;9487;50.892;6.906;2023-09-19T13:27:39;22.10;1.00
18717;DHT22;9487;50.892;6.906;2023-09-19T13:30:07;22.00;1.00
18717;DHT22;9487;50.892;6.906;2023-09-19T13:32:34;22.00;1.00
18717;DHT22;9487;50.892;6.906;2023-09-19T13:35:01;21.90;1.00
18717;DHT22;9487;50.892;6.906;2023-09-19T13:37:30;21.80;1.00
18717;DHT22;9487;50.892;6.906;2023-09-19T13:39:57;21.80;99.90
18717;DHT22;9487;50.892;6.906;2023-09-19T13:42:26;21.90;99.90
18717;DHT22;9487;50.892;6.906;2023-09-19T13:44:55;22.10;99.90
18717;DHT22;9487;50.892;6.906;2023-09-19T13:47:22;22.30;11.90
18717;DHT22;9487;50.892;6.906;2023-09-19T13:49:52;22.20;5.30
18717;DHT22;9487;50.892;6.906;2023-09-19T13:52:19;22.30;98.10
18717;DHT22;9487;50.892;6.906;2023-09-19T13:54:47;22.40;1.00
18717;DHT22;9487;50.892;6.906;2023-09-19T13:57:14;22.50;1.00
18717;DHT22;9487;50.892;6.906;2023-09-19T13:59:45;22.50;1.00
18717;DHT22;9487;50.892;6.906;2023-09-19T14:02:13;22.50;1.00
18717;DHT22;9487;50.892;6.906;2023-09-19T14:04:40;22.60;1.00
18717;DHT22;9487;50.892;6.906;2023-09-19T14:07:07;22.50;1.00
18717;DHT22;9487;50.892;6.906;2023-09-19T14:09:35;22.40;1.00
18717;DHT22;9487;50.892;6.906;2023-09-19T14:12:02;22.20;1.00
18717;DHT22;9487;50.892;6.906;2023-09-19T14:14:30;22.10;1.00
18717;DHT22;9487;50.892;6.906;2023-09-19T14:16:58;22.00;1.00
18717;DHT22;9487;50.892;6.906;2023-09-19T14:19:27;21.90;87.90
18717;DHT22;9487;50.892;6.906;2023-09-19T14:21:55;21.90;99.90
18717;DHT22;9487;50.892;6.906;2023-09-19T14:24:23;21.90;99.90
18717;DHT22;9487;50.892;6.906;2023-09-19T14:26:49;21.90;99.90
18717;DHT22;9487;50.892;6.906;2023-09-19T14:29:17;21.90;99.90
18717;DHT22;9487;50.892;6.906;2023-09-19T14:31:45;21.90;99.90
18717;DHT22;9487;50.892;6.906;2023-09-19T14:34:13;21.80;99.90
18717;DHT22;9487;50.892;6.906;2023-09-19T14:36:41;21.70;99.90
18717;DHT22;9487;50.892;6.906;2023-09-19T14:39:08;21.70;99.90
18717;DHT22;9487;50.892;6.906;2023-09-19T14:41:35;21.80;99.90
18717;DHT22;9487;50.892;6.906;2023-09-19T14:44:03;21.70;99.90
18717;DHT22;9487;50.892;6.906;2023-09-19T14:46:30;21.70;1.00
18717;DHT22;9487;50.892;6.906;2023-09-19T14:48:57;21.80;99.90
18717;DHT22;9487;50.892;6.906;2023-09-19T14:51:29;21.80;99.90
18717;DHT22;9487;50.892;6.906;2023-09-19T14:53:56;21.80;99.90
18717;DHT22;9487;50.892;6.906;2023-09-19T14:56:23;21.90;99.90
18717;DHT22;9487;50.892;6.906;2023-09-19T14:58:51;22.20;1.00
18717;DHT22;9487;50.892;6.906;2023-09-19T15:01:18;22.30;99.90
18717;DHT22;9487;50.892;6.906;2023-09-19T15:03:46;22.20;99.90
18717;DHT22;9487;50.892;6.906;2023-09-19T15:06:15;22.10;99.90
18717;DHT22;9487;50.892;6.906;2023-09-19T15:08:47;22.00;99.90
18717;DHT22;9487;50.892;6.906;2023-09-19T15:11:16;22.00;1.00
18717;DHT22;9487;50.892;6.906;2023-09-19T15:13:44;21.90;99.90
18717;DHT22;9487;50.892;6.906;2023-09-19T15:16:11;21.80;99.90
18717;DHT22;9487;50.892;6.906;2023-09-19T15:18:41;21.60;99.90
18717;DHT22;9487;50.892;6.906;2023-09-19T15:21:11;21.50;99.90
18717;DHT22;9487;50.892;6.906;2023-09-19T15:23:39;21.50;99.90
18717;DHT22;9487;50.892;6.906;2023-09-19T15:26:10;21.30;99.90
18717;DHT22;9487;50.892;6.906;2023-09-19T15:28:38;21.30;99.90
18717;DHT22;9487;50.892;6.906;2023-09-19T15:31:06;21.20;1.00
18717;DHT22;9487;50.892;6.906;2023-09-19T15:33:34;21.20;1.00
18717;DHT22;9487;50.892;6.906;2023-09-19T15:36:05;21.20;99.90
18717;DHT22;9487;50.892;6.906;2023-09-19T15:38:54;21.10;1.00
18717;DHT22;9487;50.892;6.906;2023-09-19T15:41:20;21.00;1.00
18717;DHT22;9487;50.892;6.906;2023-09-19T15:43:47;21.00;1.00
18717;DHT22;9487;50.892;6.906;2023-09-19T15:46:14;21.00;1.00
18717;DHT22;9487;50.892;6.906;2023-09-19T15:48:42;21.00;1.00
18717;DHT22;9487;50.892;6.906;2023-09-19T15:51:10;21.10;1.00
18717;DHT22;9487;50.892;6.906;2023-09-19T15:53:43;21.10;1.00
18717;DHT22;9487;50.892;6.906;2023-09-19T15:56:10;21.10;1.00
18717;DHT22;9487;50.892;6.906;2023-09-19T15:58:40;21.10;1.00
18717;DHT22;9487;50.892;6.906;2023-09-19T16:01:07;21.10;1.00
18717;DHT22;9487;50.892;6.906;2023-09-19T16:03:35;21.10;1.00
18717;DHT22;9487;50.892;6.906;2023-09-19T16:06:08;21.10;1.00
18717;DHT22;9487;50.892;6.906;2023-09-19T16:08:35;21.10;1.00
18717;DHT22;9487;50.892;6.906;2023-09-19T16:11:03;21.20;1.00
18717;DHT22;9487;50.892;6.906;2023-09-19T16:13:30;21.20;1.00
18717;DHT22;9487;50.892;6.906;2023-09-19T16:15:58;21.10;1.00
18717;DHT22;9487;50.892;6.906;2023-09-19T16:18:27;21.10;1.00
18717;DHT22;9487;50.892;6.906;2023-09-19T16:21:01;21.10;1.00
18717;DHT22;9487;50.892;6.906;2023-09-19T16:23:29;21.10;1.00
18717;DHT22;9487;50.892;6.906;2023-09-19T16:26:01;21.00;1.00
18717;DHT22;9487;50.892;6.906;2023-09-19T16:28:31;21.10;1.00
18717;DHT22;9487;50.892;6.906;2023-09-19T16:31:01;21.00;1.00